Time;durP1;ratioP1;P1;durP2;ratioP2;P2;SDS_P1;SDS_P2;PMS_P1;PMS_P2;Temp;Humidity;BMP_temperature;BMP_pressure;BME280_temperature;BME280_humidity;BME280_pressure;Samples;Min_cycle;Max_cycle;Signal;HPM_P1;HPM_P2
2020/12/17 00:00:43;;;;;;;22.40;16.00;;;4.40;90.70;;;;;;4963935;28;20447;-74
2020/12/17 00:03:11;;;;;;;21.77;15.70;;;4.40;90.70;;;;;;4974149;28;20448;-75
2020/12/17 00:05:38;;;;;;;20.90;14.70;;;4.30;90.50;;;;;;4965539;28;20464;-75
2020/12/17 00:08:05;;;;;;;21.63;16.80;;;4.40;90.80;;;;;;4967683;28;20454;-75
2020/12/17 00:10:31;;;;;;;22.93;15.47;;;4.40;90.40;;;;;;4967660;28;20822;-75
2020/12/17 00:12:58;;;;;;;24.93;16.13;;;4.30;90.40;;;;;;4968135;28;20545;-75
2020/12/17 00:15:25;;;;;;;20.50;15.70;;;4.30;90.40;;;;;;4965315;28;20525;-75
2020/12/17 00:17:55;;;;;;;22.77;17.30;;;4.20;90.70;;;;;;4965798;28;20463;-75
2020/12/17 00:20:23;;;;;;;22.67;15.60;;;4.30;91.10;;;;;;4956506;28;20462;-75
2020/12/17 00:22:50;;;;;;;22.93;17.00;;;4.30;90.80;;;;;;4966049;28;20487;-75
2020/12/17 00:25:18;;;;;;;21.60;16.23;;;4.30;90.90;;;;;;4971727;28;20457;-75
2020/12/17 00:27:45;;;;;;;26.80;16.17;;;4.30;91.10;;;;;;4967416;28;20542;-75
2020/12/17 00:30:14;;;;;;;23.10;15.40;;;4.30;91.10;;;;;;4966253;28;20456;-75
2020/12/17 00:32:44;;;;;;;23.70;18.40;;;4.20;90.90;;;;;;4964372;28;20464;-75
2020/12/17 00:35:11;;;;;;;22.67;15.33;;;4.30;90.80;;;;;;4966902;28;20486;-74
2020/12/17 00:37:38;;;;;;;23.87;15.70;;;4.30;90.60;;;;;;4970718;28;20986;-74
2020/12/17 00:40:06;;;;;;;23.47;17.60;;;4.30;90.50;;;;;;4970733;28;20479;-75
2020/12/17 00:42:33;;;;;;;23.37;17.33;;;4.30;90.50;;;;;;4962089;28;20449;-74
2020/12/17 00:44:59;;;;;;;25.33;17.57;;;4.30;90.10;;;;;;4963109;28;20465;-74
2020/12/17 00:47:29;;;;;;;22.13;15.10;;;4.30;90.30;;;;;;4966348;28;20540;-75
2020/12/17 00:49:56;;;;;;;21.63;16.03;;;4.30;90.20;;;;;;4970650;28;20461;-78
2020/12/17 00:52:23;;;;;;;24.37;15.87;;;4.30;90.20;;;;;;4971048;28;20987;-76
2020/12/17 00:54:50;;;;;;;20.47;16.67;;;4.20;90.10;;;;;;4967706;28;20451;-77
2020/12/17 00:57:18;;;;;;;22.17;16.97;;;4.20;90.40;;;;;;4965378;28;20465;-77
2020/12/17 00:59:45;;;;;;;21.60;15.70;;;4.20;90.60;;;;;;4969054;28;20472;-77
2020/12/17 01:02:11;;;;;;;20.90;16.80;;;4.20;90.20;;;;;;4974889;28;20458;-77
2020/12/17 01:04:38;;;;;;;20.40;16.07;;;4.30;90.10;;;;;;4967023;28;20546;-77
2020/12/17 01:07:13;;;;;;;20.97;14.23;;;4.20;90.20;;;;;;4969821;28;20463;-77
2020/12/17 01:09:40;;;;;;;21.73;14.73;;;4.20;89.80;;;;;;4976561;28;20943;-76
2020/12/17 01:12:09;;;;;;;19.80;15.20;;;4.20;89.70;;;;;;4972148;28;20450;-76
2020/12/17 01:14:36;;;;;;;21.70;14.70;;;4.20;89.60;;;;;;4966586;28;20453;-78
2020/12/17 01:17:04;;;;;;;19.67;14.33;;;4.20;89.30;;;;;;4988511;28;20469;-77
2020/12/17 01:19:31;;;;;;;21.03;15.13;;;4.20;89.40;;;;;;4986104;28;20470;-77
2020/12/17 01:21:57;;;;;;;21.27;15.83;;;4.30;90.00;;;;;;4982263;28;20537;-76
2020/12/17 01:24:25;;;;;;;23.20;15.50;;;4.20;90.20;;;;;;4975723;28;20456;-77
2020/12/17 01:26:57;;;;;;;22.20;16.07;;;4.20;90.30;;;;;;4982182;28;20448;-76
2020/12/17 01:29:27;;;;;;;21.50;14.47;;;4.30;90.40;;;;;;4979077;28;20481;-78
2020/12/17 01:31:57;;;;;;;19.57;14.30;;;4.30;90.10;;;;;;4972182;28;20445;-77
2020/12/17 01:34:24;;;;;;;21.93;15.40;;;4.20;89.80;;;;;;4975347;28;20908;-78
2020/12/17 01:36:51;;;;;;;18.50;14.40;;;4.20;89.70;;;;;;4979689;28;20460;-76
2020/12/17 01:39:19;;;;;;;20.80;13.87;;;4.20;89.20;;;;;;4974990;28;20558;-76
2020/12/17 01:41:46;;;;;;;21.60;13.67;;;4.20;89.70;;;;;;4971851;28;20954;-77
2020/12/17 01:44:13;;;;;;;20.00;15.03;;;4.20;89.80;;;;;;4978386;28;20822;-76
2020/12/17 01:46:39;;;;;;;18.87;14.73;;;4.20;89.40;;;;;;4976746;28;20543;-77
2020/12/17 01:49:07;;;;;;;24.23;15.10;;;4.20;88.70;;;;;;4976916;28;20453;-78
2020/12/17 01:51:38;;;;;;;17.63;14.20;;;4.20;88.90;;;;;;4981355;28;20457;-77
2020/12/17 01:54:04;;;;;;;19.37;14.30;;;4.10;89.30;;;;;;4971108;28;21231;-76
2020/12/17 01:56:33;;;;;;;19.73;14.27;;;4.10;89.40;;;;;;4974042;28;20491;-77
2020/12/17 01:59:07;;;;;;;16.20;12.40;;;4.10;89.60;;;;;;4970419;28;20493;-77
2020/12/17 02:01:33;;;;;;;21.13;14.10;;;4.10;89.60;;;;;;4973835;28;20571;-77
2020/12/17 02:04:02;;;;;;;20.97;15.27;;;4.10;88.90;;;;;;4974960;28;20464;-77
2020/12/17 02:06:28;;;;;;;19.50;14.60;;;4.10;88.80;;;;;;4992035;28;20524;-77
2020/12/17 02:08:58;;;;;;;20.37;14.40;;;4.10;88.80;;;;;;5003029;28;20448;-77
2020/12/17 02:11:27;;;;;;;19.00;14.80;;;4.10;89.00;;;;;;4999812;28;20478;-77
2020/12/17 02:13:54;;;;;;;20.77;14.13;;;4.00;88.90;;;;;;4985281;28;20463;-77
2020/12/17 02:16:23;;;;;;;18.77;13.57;;;4.00;89.30;;;;;;4971916;28;20453;-76
2020/12/17 02:18:52;;;;;;;19.07;15.10;;;4.00;88.70;;;;;;4974302;28;20459;-77
2020/12/17 02:21:19;;;;;;;14.70;11.97;;;3.90;88.80;;;;;;4978270;28;20958;-76
2020/12/17 02:23:45;;;;;;;21.53;14.67;;;3.90;88.70;;;;;;4976002;28;20827;-77
2020/12/17 02:26:13;;;;;;;17.77;13.20;;;3.90;88.80;;;;;;4975247;28;20868;-77
2020/12/17 02:28:42;;;;;;;17.00;13.07;;;3.80;88.80;;;;;;4983850;28;20863;-79
2020/12/17 02:31:09;;;;;;;18.00;13.37;;;3.90;88.90;;;;;;4977380;28;20441;-77
2020/12/17 02:33:35;;;;;;;16.43;14.00;;;3.70;89.20;;;;;;4979783;28;20472;-76
2020/12/17 02:36:02;;;;;;;20.20;14.37;;;3.70;89.30;;;;;;4967914;28;20960;-78
2020/12/17 02:38:31;;;;;;;18.00;13.40;;;3.80;89.30;;;;;;4962457;28;20468;-77
2020/12/17 02:40:57;;;;;;;18.10;13.20;;;3.80;89.00;;;;;;4969400;28;20466;-77
2020/12/17 02:43:25;;;;;;;18.07;13.60;;;3.70;88.80;;;;;;4964143;28;20451;-78
2020/12/17 02:45:51;;;;;;;19.23;13.50;;;3.70;89.20;;;;;;4976775;28;20500;-77
2020/12/17 02:48:19;;;;;;;20.70;13.73;;;3.70;88.90;;;;;;4978183;28;20454;-77
2020/12/17 02:50:45;;;;;;;18.83;13.90;;;3.70;89.10;;;;;;4975257;28;20792;-77
2020/12/17 02:53:12;;;;;;;18.40;14.27;;;3.70;88.90;;;;;;4973572;28;20456;-78
2020/12/17 02:55:39;;;;;;;21.77;13.93;;;3.70;88.80;;;;;;4970268;28;20472;-77
2020/12/17 02:58:06;;;;;;;19.23;13.97;;;3.70;88.80;;;;;;4971277;28;20675;-77
2020/12/17 03:00:34;;;;;;;18.97;14.00;;;3.70;88.70;;;;;;4971568;28;20489;-77
2020/12/17 03:03:01;;;;;;;18.00;12.57;;;3.80;88.50;;;;;;4977023;28;20454;-77
2020/12/17 03:05:27;;;;;;;21.13;14.10;;;3.70;88.90;;;;;;4974042;28;20469;-77
2020/12/17 03:07:55;;;;;;;18.50;14.43;;;3.70;88.50;;;;;;4977445;28;20488;-78
2020/12/17 03:10:22;;;;;;;21.43;15.57;;;3.60;88.80;;;;;;4976640;28;20456;-77
2020/12/17 03:12:48;;;;;;;20.30;14.50;;;3.50;89.50;;;;;;4971066;28;20464;-77
2020/12/17 03:15:15;;;;;;;19.90;14.13;;;3.60;90.00;;;;;;4981474;28;20455;-77
2020/12/17 03:17:42;;;;;;;19.73;13.97;;;3.50;90.00;;;;;;4978240;28;21000;-76
2020/12/17 03:20:11;;;;;;;19.23;13.37;;;3.60;90.00;;;;;;4976330;28;21022;-76
2020/12/17 03:22:38;;;;;;;23.13;14.60;;;3.60;89.90;;;;;;4971691;28;20507;-76
2020/12/17 03:25:06;;;;;;;17.37;13.93;;;3.60;89.20;;;;;;4981611;28;20453;-77
2020/12/17 03:27:33;;;;;;;20.13;13.70;;;3.60;90.00;;;;;;4964849;28;22542;-77
2020/12/17 03:29:59;;;;;;;19.73;14.33;;;3.70;89.20;;;;;;4978984;28;20455;-79
2020/12/17 03:32:26;;;;;;;20.33;14.20;;;3.60;88.40;;;;;;4979409;28;20452;-77
2020/12/17 03:34:53;;;;;;;22.20;15.23;;;3.60;88.60;;;;;;4961415;28;21050;-77
2020/12/17 03:37:19;;;;;;;20.07;15.03;;;3.60;88.80;;;;;;4978590;28;20456;-77
2020/12/17 03:39:46;;;;;;;21.20;13.97;;;3.60;88.80;;;;;;4974617;28;20547;-77
2020/12/17 03:42:12;;;;;;;21.00;14.70;;;3.50;88.70;;;;;;4977932;28;20457;-78
2020/12/17 03:44:39;;;;;;;21.23;14.03;;;3.50;89.30;;;;;;4975946;28;20912;-77
2020/12/17 03:47:05;;;;;;;22.47;15.60;;;3.50;89.50;;;;;;4972790;28;20518;-77
2020/12/17 03:49:33;;;;;;;21.90;14.80;;;3.50;89.30;;;;;;4971011;28;20555;-77
2020/12/17 03:52:00;;;;;;;23.30;15.77;;;3.50;89.50;;;;;;4977077;28;20461;-76
2020/12/17 03:54:27;;;;;;;22.93;15.60;;;3.40;89.20;;;;;;4965020;28;20520;-76
2020/12/17 03:56:53;;;;;;;24.27;15.97;;;3.50;89.10;;;;;;4960039;28;20453;-76
2020/12/17 03:59:20;;;;;;;25.00;16.03;;;3.50;89.80;;;;;;4967040;28;20487;-76
2020/12/17 04:01:46;;;;;;;22.80;15.43;;;3.50;89.20;;;;;;4974811;28;20819;-77
2020/12/17 04:04:12;;;;;;;23.60;15.57;;;3.50;88.90;;;;;;4967471;28;20452;-77
2020/12/17 04:06:42;;;;;;;24.00;16.37;;;3.50;89.10;;;;;;4972569;28;20801;-76
2020/12/17 04:09:10;;;;;;;23.00;14.30;;;3.50;89.70;;;;;;4979973;28;20514;-76
2020/12/17 04:11:36;;;;;;;23.03;15.60;;;3.50;89.60;;;;;;4973926;28;20449;-76
2020/12/17 04:14:03;;;;;;;22.47;15.67;;;3.50;89.50;;;;;;4970889;28;20997;-76
2020/12/17 04:16:29;;;;;;;24.47;15.90;;;3.60;89.40;;;;;;4969835;28;20447;-76
2020/12/17 04:18:56;;;;;;;26.60;16.47;;;3.50;89.40;;;;;;4968189;28;20832;-76
2020/12/17 04:21:22;;;;;;;23.97;16.17;;;3.50;89.60;;;;;;4970821;28;20459;-77
2020/12/17 04:23:49;;;;;;;23.73;14.57;;;3.50;89.50;;;;;;4980321;28;20495;-76
2020/12/17 04:26:16;;;;;;;24.07;15.47;;;3.50;89.70;;;;;;4978317;28;20463;-77
2020/12/17 04:28:43;;;;;;;24.90;16.03;;;3.50;89.10;;;;;;4967438;28;20564;-79
2020/12/17 04:31:10;;;;;;;22.67;15.33;;;3.50;89.70;;;;;;4967594;28;20460;-77
2020/12/17 04:33:36;;;;;;;27.80;16.33;;;3.40;89.90;;;;;;4965596;28;20484;-76
2020/12/17 04:36:03;;;;;;;28.73;17.90;;;3.50;90.20;;;;;;4967445;28;20912;-76
2020/12/17 04:38:29;;;;;;;23.00;15.57;;;3.50;90.00;;;;;;4972958;28;20467;-78
2020/12/17 04:40:56;;;;;;;27.50;16.80;;;3.50;90.10;;;;;;4971521;28;20461;-77
2020/12/17 04:43:23;;;;;;;26.30;16.13;;;3.50;90.20;;;;;;4972476;28;20478;-77
2020/12/17 04:45:50;;;;;;;26.63;16.53;;;3.50;90.50;;;;;;4973944;28;20493;-76
2020/12/17 04:48:20;;;;;;;25.80;15.50;;;3.50;90.50;;;;;;4971263;28;20924;-76
2020/12/17 04:50:47;;;;;;;25.63;16.13;;;3.50;90.60;;;;;;4966405;28;20544;-77
2020/12/17 04:53:21;;;;;;;25.77;17.03;;;3.50;90.70;;;;;;4965911;28;21035;-77
2020/12/17 04:55:52;;;;;;;28.13;17.30;;;3.50;91.00;;;;;;4974141;28;20458;-76
2020/12/17 04:58:21;;;;;;;28.10;16.20;;;3.50;90.90;;;;;;4962487;28;20930;-77
2020/12/17 05:00:53;;;;;;;29.07;18.77;;;3.50;91.00;;;;;;4970202;28;20949;-76
2020/12/17 05:03:25;;;;;;;32.43;18.10;;;3.50;91.30;;;;;;4965044;28;20502;-76
2020/12/17 05:05:52;;;;;;;29.50;17.53;;;3.50;91.60;;;;;;4963857;28;20454;-77
2020/12/17 05:08:20;;;;;;;28.63;18.13;;;3.50;91.70;;;;;;4970890;28;20498;-77
2020/12/17 05:10:47;;;;;;;27.53;16.70;;;3.40;91.70;;;;;;4968954;28;20479;-77
2020/12/17 05:13:16;;;;;;;27.80;16.33;;;3.50;91.80;;;;;;4972214;28;20462;-77
2020/12/17 05:15:44;;;;;;;28.53;17.70;;;3.50;91.80;;;;;;4970507;28;20464;-77
2020/12/17 05:18:11;;;;;;;28.80;17.47;;;3.50;91.60;;;;;;4973930;28;20463;-78
2020/12/17 05:20:39;;;;;;;34.13;18.67;;;3.50;92.20;;;;;;4971585;28;20470;-77
2020/12/17 05:23:06;;;;;;;31.13;18.23;;;3.50;92.30;;;;;;4976193;28;20541;-77
2020/12/17 05:25:41;;;;;;;29.47;17.77;;;3.50;92.40;;;;;;4967123;28;20456;-77
2020/12/17 05:28:07;;;;;;;29.17;17.17;;;3.50;92.60;;;;;;4971991;28;20872;-77
2020/12/17 05:30:35;;;;;;;38.07;19.60;;;3.50;92.80;;;;;;4970987;28;20506;-77
2020/12/17 05:33:04;;;;;;;31.70;19.00;;;3.40;93.20;;;;;;4973299;28;20453;-77
2020/12/17 05:35:33;;;;;;;36.13;18.43;;;3.50;93.20;;;;;;4973537;28;20549;-76
2020/12/17 05:38:01;;;;;;;30.93;19.30;;;3.50;93.10;;;;;;4974566;28;20460;-76
2020/12/17 05:40:28;;;;;;;32.87;18.87;;;3.50;93.10;;;;;;4982982;28;20474;-77
2020/12/17 05:42:55;;;;;;;35.03;19.80;;;3.50;92.80;;;;;;4974047;28;20454;-77
2020/12/17 05:45:25;;;;;;;34.87;18.83;;;3.50;92.80;;;;;;4963771;28;20550;-77
2020/12/17 05:48:11;;;;;;;31.03;18.97;;;3.50;93.10;;;;;;4972070;28;20516;-77
2020/12/17 05:50:50;;;;;;;34.30;20.23;;;3.50;93.50;;;;;;4973572;28;20456;-77
2020/12/17 05:53:16;;;;;;;37.73;20.00;;;3.50;93.20;;;;;;4961590;28;20534;-77
2020/12/17 05:55:43;;;;;;;33.90;18.50;;;3.50;93.30;;;;;;4980492;28;20909;-77
2020/12/17 05:58:10;;;;;;;32.47;19.47;;;3.50;93.10;;;;;;4968796;28;20529;-77
2020/12/17 06:00:38;;;;;;;34.30;20.23;;;3.50;93.00;;;;;;4968301;28;20492;-77
2020/12/17 06:03:10;;;;;;;31.17;18.90;;;3.50;93.30;;;;;;4966629;28;20482;-77
2020/12/17 06:05:45;;;;;;;34.43;20.27;;;3.50;93.10;;;;;;4973776;28;20498;-77
2020/12/17 06:08:17;;;;;;;29.70;19.40;;;3.50;93.10;;;;;;4973326;28;20486;-77
2020/12/17 06:10:47;;;;;;;33.87;19.47;;;3.50;93.20;;;;;;4974417;28;20532;-77
2020/12/17 06:13:15;;;;;;;38.00;20.13;;;3.50;93.20;;;;;;4969834;28;20468;-77
2020/12/17 06:15:45;;;;;;;38.13;21.27;;;3.50;93.00;;;;;;4976803;28;20444;-76
2020/12/17 06:18:19;;;;;;;33.97;19.93;;;3.50;92.90;;;;;;4973897;28;20467;-76
2020/12/17 06:20:49;;;;;;;35.20;21.00;;;3.50;93.40;;;;;;4966250;28;20459;-76
2020/12/17 06:23:16;;;;;;;38.13;20.90;;;3.50;93.30;;;;;;4974313;28;20451;-77
2020/12/17 06:25:45;;;;;;;37.67;21.50;;;3.50;93.60;;;;;;4989010;28;20483;-81
2020/12/17 06:28:28;;;;;;;38.97;19.77;;;3.50;94.00;;;;;;4994430;28;20462;-76
2020/12/17 06:30:59;;;;;;;38.17;20.77;;;3.50;94.00;;;;;;4989141;28;20466;-78
2020/12/17 06:33:28;;;;;;;37.37;20.40;;;3.50;93.50;;;;;;4981274;28;20461;-77
2020/12/17 06:35:58;;;;;;;34.57;20.60;;;3.50;93.50;;;;;;4963755;28;20458;-77
2020/12/17 06:38:27;;;;;;;37.77;20.10;;;3.50;93.60;;;;;;4968199;28;20455;-78
2020/12/17 06:40:54;;;;;;;33.70;20.97;;;3.60;93.90;;;;;;4959746;28;20460;-77
2020/12/17 06:43:36;;;;;;;38.03;20.47;;;3.60;93.70;;;;;;4970363;28;20461;-77
2020/12/17 06:46:05;;;;;;;36.70;20.00;;;3.60;93.30;;;;;;4962831;28;20488;-77
2020/12/17 06:48:34;;;;;;;35.30;20.90;;;3.60;93.20;;;;;;4978520;28;20961;-77
2020/12/17 06:51:04;;;;;;;34.83;21.50;;;3.70;92.90;;;;;;4972537;28;20448;-77
2020/12/17 06:53:39;;;;;;;40.13;20.47;;;3.60;93.30;;;;;;4970297;28;20510;-77
2020/12/17 06:56:21;;;;;;;40.47;21.57;;;3.80;94.00;;;;;;4970867;28;20475;-78
2020/12/17 06:58:48;;;;;;;35.60;20.73;;;3.70;93.30;;;;;;4970443;28;20464;-77
2020/12/17 07:01:25;;;;;;;37.00;20.63;;;3.70;92.70;;;;;;4966165;28;20460;-77
2020/12/17 07:03:55;;;;;;;32.67;20.07;;;3.70;92.90;;;;;;4968198;28;20458;-77
2020/12/17 07:06:23;;;;;;;37.50;21.47;;;3.70;92.30;;;;;;4962072;28;20448;-78
2020/12/17 07:08:52;;;;;;;39.97;23.17;;;3.70;93.10;;;;;;4970734;28;20536;-77
2020/12/17 07:11:38;;;;;;;39.63;21.33;;;3.60;93.00;;;;;;4969744;28;20452;-77
2020/12/17 07:14:06;;;;;;;41.23;21.30;;;3.60;93.10;;;;;;4973887;28;20453;-77
2020/12/17 07:16:33;;;;;;;32.97;20.33;;;3.60;93.60;;;;;;4971017;28;20447;-77
2020/12/17 07:19:22;;;;;;;35.70;21.53;;;3.60;94.00;;;;;;4967555;28;20468;-76
2020/12/17 07:21:53;;;;;;;45.50;22.23;;;3.70;93.30;;;;;;4966583;28;20487;-77
2020/12/17 07:24:29;;;;;;;40.30;21.00;;;3.80;92.90;;;;;;4969920;28;20452;-77
2020/12/17 07:27:00;;;;;;;37.80;21.17;;;3.70;92.80;;;;;;4976460;28;20461;-77
2020/12/17 07:29:37;;;;;;;37.23;20.80;;;3.80;92.70;;;;;;4970551;28;20479;-77
2020/12/17 07:32:23;;;;;;;33.40;21.17;;;3.80;92.40;;;;;;4965521;28;21079;-76
2020/12/17 07:34:51;;;;;;;37.73;20.73;;;3.80;92.20;;;;;;4965542;28;20483;-79
2020/12/17 07:37:38;;;;;;;34.57;21.03;;;3.80;92.00;;;;;;4970168;28;20511;-77
2020/12/17 07:40:18;;;;;;;40.93;21.27;;;3.80;92.10;;;;;;4964245;28;20472;-76
2020/12/17 07:43:06;;;;;;;37.97;21.70;;;3.80;92.00;;;;;;4962593;28;21026;-77
2020/12/17 07:45:51;;;;;;;35.83;20.40;;;3.80;92.30;;;;;;4960846;28;20458;-76
2020/12/17 07:48:44;;;;;;;33.70;21.00;;;3.80;92.50;;;;;;4974083;28;21028;-78
2020/12/17 07:51:34;;;;;;;37.33;21.97;;;3.80;91.80;;;;;;4964484;28;20473;-78
2020/12/17 07:54:05;;;;;;;34.13;20.47;;;3.80;91.50;;;;;;4962462;28;20453;-77
2020/12/17 07:56:34;;;;;;;41.30;21.10;;;3.80;91.40;;;;;;4963979;28;20464;-76
2020/12/17 07:59:07;;;;;;;32.97;19.87;;;3.70;91.90;;;;;;4966862;28;20476;-76
2020/12/17 08:01:34;;;;;;;33.83;19.47;;;3.70;91.80;;;;;;4966473;28;20456;-78
2020/12/17 08:04:02;;;;;;;33.20;20.50;;;3.80;91.70;;;;;;4961764;28;20487;-74
2020/12/17 08:06:33;;;;;;;29.07;18.93;;;3.70;91.70;;;;;;4963072;28;20534;-78
2020/12/17 08:09:02;;;;;;;38.97;20.27;;;3.80;91.60;;;;;;4971391;28;21036;-77
2020/12/17 08:11:29;;;;;;;32.53;19.80;;;3.80;91.50;;;;;;4962586;28;20976;-77
2020/12/17 08:14:02;;;;;;;32.37;18.97;;;3.80;91.30;;;;;;4971519;28;20512;-78
2020/12/17 08:16:30;;;;;;;31.67;18.67;;;3.80;91.30;;;;;;4964505;28;20474;-74
2020/12/17 08:18:58;;;;;;;28.80;19.40;;;3.90;91.20;;;;;;4970088;28;20472;-75
2020/12/17 08:21:26;;;;;;;33.03;20.07;;;3.90;90.70;;;;;;4966887;28;20460;-76
2020/12/17 08:23:53;;;;;;;30.30;19.47;;;3.90;90.40;;;;;;4964352;28;20824;-76
2020/12/17 08:26:22;;;;;;;30.20;20.03;;;3.90;90.60;;;;;;4974527;28;20518;-75
2020/12/17 08:28:50;;;;;;;33.07;20.07;;;3.90;90.20;;;;;;4970062;28;20486;-76
2020/12/17 08:31:21;;;;;;;34.77;19.40;;;3.90;90.30;;;;;;4960954;28;20463;-76
2020/12/17 08:33:50;;;;;;;30.17;18.10;;;3.90;90.40;;;;;;4965254;28;20476;-76
2020/12/17 08:36:21;;;;;;;29.23;18.87;;;3.90;90.40;;;;;;4967834;28;20457;-76
2020/12/17 08:38:57;;;;;;;26.43;17.80;;;3.90;90.10;;;;;;4968729;28;20518;-75
2020/12/17 08:41:29;;;;;;;26.20;16.67;;;3.90;90.20;;;;;;4966166;28;20539;-76
2020/12/17 08:44:00;;;;;;;24.23;16.53;;;3.90;89.60;;;;;;4964230;28;20960;-76
2020/12/17 08:46:32;;;;;;;27.60;16.87;;;4.00;89.20;;;;;;4967331;28;20448;-75
2020/12/17 08:48:59;;;;;;;27.33;17.30;;;4.00;88.80;;;;;;4962868;28;20465;-75
2020/12/17 08:51:27;;;;;;;29.77;16.93;;;4.00;88.80;;;;;;4961759;28;20483;-76
2020/12/17 08:53:54;;;;;;;23.40;15.17;;;4.10;88.50;;;;;;4967296;28;20486;-75
2020/12/17 08:56:22;;;;;;;23.47;14.87;;;4.20;87.50;;;;;;4958612;28;20468;-76
2020/12/17 08:58:54;;;;;;;25.07;16.27;;;4.20;87.20;;;;;;4963576;28;20563;-75
2020/12/17 09:01:27;;;;;;;28.23;17.07;;;4.30;88.70;;;;;;4969369;28;20464;-77
2020/12/17 09:03:55;;;;;;;22.73;14.60;;;4.50;87.50;;;;;;4970944;28;20547;-77
2020/12/17 09:06:28;;;;;;;22.27;15.90;;;4.40;85.40;;;;;;4972323;28;20506;-75
2020/12/17 09:09:10;;;;;;;20.80;14.57;;;4.40;85.10;;;;;;4964551;28;20464;-75
2020/12/17 09:11:38;;;;;;;19.03;13.70;;;4.20;85.20;;;;;;4965048;28;20467;-76
2020/12/17 09:14:08;;;;;;;21.03;14.57;;;4.20;85.20;;;;;;4962364;28;20448;-76
2020/12/17 09:16:36;;;;;;;20.90;14.77;;;4.20;85.00;;;;;;4966462;28;20460;-76
2020/12/17 09:19:07;;;;;;;26.33;13.47;;;4.20;85.10;;;;;;4962987;28;20462;-77
2020/12/17 09:21:36;;;;;;;18.67;13.03;;;4.30;85.40;;;;;;4976250;28;20494;-75
2020/12/17 09:24:04;;;;;;;17.77;12.80;;;4.20;85.00;;;;;;4964484;28;20479;-75
2020/12/17 09:26:32;;;;;;;19.00;13.43;;;4.20;84.70;;;;;;4969262;28;20444;-75
2020/12/17 09:29:01;;;;;;;20.80;13.87;;;4.20;84.90;;;;;;4967800;28;20463;-75
2020/12/17 09:31:33;;;;;;;22.60;14.13;;;4.30;84.40;;;;;;4967207;28;20587;-75
2020/12/17 09:34:09;;;;;;;17.03;12.17;;;4.40;84.40;;;;;;4962829;28;20491;-78
2020/12/17 09:36:37;;;;;;;18.93;12.73;;;4.40;83.80;;;;;;4965576;28;20444;-77
2020/12/17 09:39:06;;;;;;;18.20;13.37;;;4.30;83.40;;;;;;4977313;28;20467;-75
2020/12/17 09:41:33;;;;;;;17.87;12.07;;;4.40;83.60;;;;;;4977746;28;20467;-75
2020/12/17 09:44:00;;;;;;;16.90;13.47;;;4.50;83.50;;;;;;4973379;28;20901;-75
2020/12/17 09:46:41;;;;;;;20.00;13.40;;;4.50;83.20;;;;;;4983268;28;20527;-76
2020/12/17 09:49:22;;;;;;;16.33;11.83;;;4.60;82.90;;;;;;4983167;28;20506;-74
2020/12/17 09:51:58;;;;;;;15.87;11.23;;;4.60;82.40;;;;;;4967951;28;20514;-76
2020/12/17 09:54:25;;;;;;;17.73;12.20;;;4.60;82.40;;;;;;4971241;28;20458;-74
2020/12/17 09:57:06;;;;;;;16.93;12.13;;;4.60;82.40;;;;;;4970436;28;20504;-75
2020/12/17 09:59:33;;;;;;;18.93;13.10;;;4.50;82.10;;;;;;4966380;28;20469;-75
2020/12/17 10:02:01;;;;;;;20.50;11.60;;;4.60;82.10;;;;;;4966925;28;20995;-75
2020/12/17 10:04:29;;;;;;;15.70;12.57;;;4.70;81.80;;;;;;4967158;28;20536;-77
2020/12/17 10:06:56;;;;;;;16.33;11.73;;;4.90;81.30;;;;;;4966897;28;20533;-75
2020/12/17 10:09:24;;;;;;;15.50;11.93;;;4.90;81.00;;;;;;4969985;28;21015;-74
2020/12/17 10:11:56;;;;;;;17.90;12.93;;;5.10;80.60;;;;;;4974767;28;20452;-75
2020/12/17 10:17:23;;;;;;;16.73;13.00;;;5.20;79.50;;;;;;5080699;27;20591;-73
2020/12/17 10:19:52;;;;;;;14.90;11.93;;;5.20;79.30;;;;;;5072729;28;20462;-76
2020/12/17 10:22:20;;;;;;;19.50;12.00;;;5.40;78.90;;;;;;5072372;28;20489;-72
2020/12/17 10:24:47;;;;;;;20.70;14.27;;;5.40;78.40;;;;;;5079326;28;20451;-75
2020/12/17 10:27:14;;;;;;;15.03;11.83;;;5.50;78.10;;;;;;5080884;28;20440;-76
2020/12/17 10:29:41;;;;;;;17.30;13.20;;;5.40;78.00;;;;;;5083340;28;20508;-78
2020/12/17 10:32:08;;;;;;;17.47;13.43;;;5.50;78.30;;;;;;5087137;28;21037;-81
2020/12/17 10:34:38;;;;;;;17.10;12.67;;;5.60;78.00;;;;;;5107218;28;20994;-80
2020/12/17 10:37:06;;;;;;;17.00;12.57;;;5.70;77.70;;;;;;5105154;28;20463;-82
2020/12/17 10:39:34;;;;;;;16.87;12.10;;;5.90;79.40;;;;;;5112145;28;20516;-78
2020/12/17 10:42:02;;;;;;;14.00;11.83;;;5.80;77.00;;;;;;5111078;28;20447;-77
2020/12/17 10:44:29;;;;;;;18.27;12.97;;;5.70;76.80;;;;;;5120816;28;20461;-78
2020/12/17 10:46:57;;;;;;;18.97;13.17;;;5.50;77.10;;;;;;5119714;28;20451;-77
2020/12/17 10:49:25;;;;;;;18.17;11.97;;;5.40;77.40;;;;;;5121802;28;20431;-77
2020/12/17 10:51:54;;;;;;;14.30;11.20;;;5.40;77.40;;;;;;5110518;28;20450;-76
2020/12/17 10:54:21;;;;;;;15.60;11.87;;;5.30;77.40;;;;;;5100543;28;20449;-76
2020/12/17 10:56:51;;;;;;;16.07;11.93;;;5.30;77.80;;;;;;5108403;28;20968;-77
2020/12/17 10:59:18;;;;;;;30.70;13.80;;;5.30;77.90;;;;;;5104248;28;20458;-77
2020/12/17 11:01:45;;;;;;;24.67;13.37;;;5.50;77.80;;;;;;5100652;28;20472;-77
2020/12/17 11:04:13;;;;;;;14.90;12.73;;;5.70;77.50;;;;;;5097607;28;20513;-77
2020/12/17 11:06:40;;;;;;;14.53;12.40;;;5.90;76.90;;;;;;5099224;28;20557;-79
2020/12/17 11:09:09;;;;;;;15.30;12.40;;;5.80;76.80;;;;;;5094511;28;20509;-76
2020/12/17 11:11:36;;;;;;;18.30;13.70;;;5.80;76.80;;;;;;5107235;28;20516;-77
2020/12/17 11:14:03;;;;;;;15.63;13.20;;;5.90;76.40;;;;;;5102326;28;20487;-77
2020/12/17 11:16:30;;;;;;;16.63;13.27;;;5.90;76.50;;;;;;5105108;28;20486;-77
2020/12/17 11:18:59;;;;;;;13.50;12.07;;;6.00;76.40;;;;;;5097993;28;20457;-76
2020/12/17 11:21:26;;;;;;;15.23;12.33;;;6.10;76.30;;;;;;5101212;28;20531;-76
2020/12/17 11:23:53;;;;;;;15.23;12.30;;;6.10;75.90;;;;;;5102034;28;20452;-79
2020/12/17 11:26:21;;;;;;;17.77;12.83;;;6.10;75.90;;;;;;5104310;28;21274;-80
2020/12/17 11:28:49;;;;;;;17.20;13.67;;;6.20;75.90;;;;;;5087705;28;20506;-77
2020/12/17 11:31:16;;;;;;;14.43;11.47;;;6.20;75.90;;;;;;5085844;28;21282;-78
2020/12/17 11:33:44;;;;;;;14.27;12.20;;;5.90;75.30;;;;;;5091700;28;21055;-79
2020/12/17 11:36:11;;;;;;;15.00;12.40;;;6.00;75.90;;;;;;5091534;28;20499;-78
2020/12/17 11:38:39;;;;;;;16.20;12.30;;;6.10;76.00;;;;;;5082074;28;20931;-78
2020/12/17 11:41:06;;;;;;;17.43;12.80;;;6.00;75.90;;;;;;5092754;28;20449;-81
2020/12/17 11:43:35;;;;;;;14.17;11.50;;;6.10;75.90;;;;;;5092037;28;20581;-78
2020/12/17 11:46:03;;;;;;;16.53;12.07;;;6.00;75.80;;;;;;5087630;28;20456;-79
2020/12/17 11:48:31;;;;;;;18.40;13.17;;;5.90;75.70;;;;;;5091074;28;20789;-79
2020/12/17 11:51:04;;;;;;;13.70;11.70;;;6.10;75.90;;;;;;5087867;28;20546;-79
2020/12/17 11:53:32;;;;;;;14.27;11.30;;;6.20;75.70;;;;;;5087409;28;20527;-78
2020/12/17 11:55:59;;;;;;;12.70;11.20;;;6.20;75.60;;;;;;5086392;28;20464;-78
2020/12/17 11:58:26;;;;;;;15.40;12.10;;;6.30;75.60;;;;;;5084157;28;20518;-79
2020/12/17 12:00:57;;;;;;;17.40;11.23;;;6.50;75.50;;;;;;5100836;28;20455;-79
2020/12/17 12:03:24;;;;;;;15.00;10.90;;;6.40;75.20;;;;;;5087154;28;20448;-78
2020/12/17 12:05:52;;;;;;;11.93;10.10;;;6.40;75.30;;;;;;5093991;28;20568;-79
2020/12/17 12:08:20;;;;;;;11.60;10.17;;;6.20;75.50;;;;;;5088680;28;20524;-79
2020/12/17 12:10:55;;;;;;;13.07;10.60;;;6.30;75.60;;;;;;5092601;28;20448;-79
2020/12/17 12:13:24;;;;;;;11.60;10.10;;;6.30;75.70;;;;;;5094593;28;20463;-78
2020/12/17 12:15:51;;;;;;;14.93;10.67;;;6.40;75.80;;;;;;5089566;28;20475;-78
2020/12/17 12:18:21;;;;;;;11.30;10.17;;;6.30;75.60;;;;;;5093112;28;20951;-78
2020/12/17 12:20:49;;;;;;;13.83;9.97;;;6.40;75.70;;;;;;5086343;28;20449;-78
2020/12/17 12:23:18;;;;;;;15.93;12.00;;;6.20;75.70;;;;;;5086611;28;20455;-80
2020/12/17 12:25:49;;;;;;;22.83;11.93;;;6.40;75.80;;;;;;5088669;28;20524;-81
2020/12/17 12:28:17;;;;;;;12.67;10.70;;;6.30;75.70;;;;;;5092495;28;20486;-79
2020/12/17 12:30:44;;;;;;;12.20;10.90;;;6.40;75.90;;;;;;5092412;28;20463;-79
2020/12/17 12:33:13;;;;;;;20.03;11.97;;;6.40;75.90;;;;;;5090701;28;20493;-80
2020/12/17 12:35:43;;;;;;;13.77;10.40;;;6.60;75.80;;;;;;5095382;28;20469;-80
2020/12/17 12:38:21;;;;;;;12.47;10.87;;;6.80;75.60;;;;;;5094320;28;20479;-80
2020/12/17 12:40:51;;;;;;;12.60;10.47;;;6.60;75.40;;;;;;5097830;28;20470;-78
2020/12/17 12:43:19;;;;;;;11.23;10.13;;;6.50;75.60;;;;;;5092559;28;20459;-82
2020/12/17 12:45:48;;;;;;;11.23;9.90;;;6.40;75.90;;;;;;5088941;28;20452;-78
2020/12/17 12:48:17;;;;;;;10.70;9.50;;;6.30;76.00;;;;;;5089301;28;21263;-78
2020/12/17 12:50:48;;;;;;;12.10;9.97;;;6.40;75.90;;;;;;5084937;28;20498;-80